sensor_id;sensor_type;location;lat;lon;timestamp;temperature;humidity
24384;DHT22;12504;52.870;8.798;2023-04-03T00:00:21;1.20;99.90
24384;DHT22;12504;52.870;8.798;2023-04-03T00:02:46;1.20;99.90
24384;DHT22;12504;52.870;8.798;2023-04-03T00:05:12;1.20;99.90
24384;DHT22;12504;52.870;8.798;2023-04-03T00:07:38;1.20;99.90
24384;DHT22;12504;52.870;8.798;2023-04-03T00:10:03;1.10;99.90
24384;DHT22;12504;52.870;8.798;2023-04-03T00:12:29;1.10;99.90
24384;DHT22;12504;52.870;8.798;2023-04-03T00:14:55;1.10;99.90
24384;DHT22;12504;52.870;8.798;2023-04-03T00:17:21;1.10;99.90
24384;DHT22;12504;52.870;8.798;2023-04-03T00:19:46;1.10;99.90
24384;DHT22;12504;52.870;8.798;2023-04-03T00:22:12;1.10;99.90
24384;DHT22;12504;52.870;8.798;2023-04-03T00:24:37;1.10;99.90
24384;DHT22;12504;52.870;8.798;2023-04-03T00:27:03;1.10;99.90
24384;DHT22;12504;52.870;8.798;2023-04-03T00:29:28;1.00;99.90
24384;DHT22;12504;52.870;8.798;2023-04-03T00:31:54;0.90;99.90
24384;DHT22;12504;52.870;8.798;2023-04-03T00:34:20;0.80;99.90
24384;DHT22;12504;52.870;8.798;2023-04-03T00:36:45;0.70;99.90
24384;DHT22;12504;52.870;8.798;2023-04-03T00:39:11;0.70;99.90
24384;DHT22;12504;52.870;8.798;2023-04-03T00:41:36;0.50;99.90
24384;DHT22;12504;52.870;8.798;2023-04-03T00:44:18;0.50;99.90
24384;DHT22;12504;52.870;8.798;2023-04-03T00:46:43;0.50;99.90
24384;DHT22;12504;52.870;8.798;2023-04-03T00:49:09;0.40;99.90
24384;DHT22;12504;52.870;8.798;2023-04-03T00:51:35;0.40;99.90
24384;DHT22;12504;52.870;8.798;2023-04-03T00:54:02;0.40;99.90
24384;DHT22;12504;52.870;8.798;2023-04-03T00:56:30;0.30;99.90
24384;DHT22;12504;52.870;8.798;2023-04-03T00:59:02;0.30;99.90
24384;DHT22;12504;52.870;8.798;2023-04-03T01:01:29;0.30;99.90
24384;DHT22;12504;52.870;8.798;2023-04-03T01:03:56;0.20;99.90
24384;DHT22;12504;52.870;8.798;2023-04-03T01:06:25;0.20;99.90
24384;DHT22;12504;52.870;8.798;2023-04-03T01:08:51;0.20;99.90
24384;DHT22;12504;52.870;8.798;2023-04-03T01:11:18;0.20;99.90
24384;DHT22;12504;52.870;8.798;2023-04-03T01:13:44;0.20;99.90
24384;DHT22;12504;52.870;8.798;2023-04-03T01:16:10;0.20;99.90
24384;DHT22;12504;52.870;8.798;2023-04-03T01:18:37;0.20;99.90
24384;DHT22;12504;52.870;8.798;2023-04-03T01:26:14;0.10;99.90
24384;DHT22;12504;52.870;8.798;2023-04-03T01:28:40;0.10;99.90
24384;DHT22;12504;52.870;8.798;2023-04-03T01:31:25;0.20;99.90
24384;DHT22;12504;52.870;8.798;2023-04-03T01:33:53;0.20;99.90
24384;DHT22;12504;52.870;8.798;2023-04-03T01:36:25;0.20;99.90
24384;DHT22;12504;52.870;8.798;2023-04-03T01:38:51;0.20;99.90
24384;DHT22;12504;52.870;8.798;2023-04-03T01:41:17;0.20;99.90
24384;DHT22;12504;52.870;8.798;2023-04-03T01:43:45;0.10;99.90
24384;DHT22;12504;52.870;8.798;2023-04-03T01:46:10;0.10;99.90
24384;DHT22;12504;52.870;8.798;2023-04-03T01:48:37;0.10;99.90
24384;DHT22;12504;52.870;8.798;2023-04-03T01:51:03;0.10;99.90
24384;DHT22;12504;52.870;8.798;2023-04-03T01:53:28;0.10;99.90
24384;DHT22;12504;52.870;8.798;2023-04-03T01:55:54;0.00;99.90
24384;DHT22;12504;52.870;8.798;2023-04-03T01:58:20;-0.10;99.90
24384;DHT22;12504;52.870;8.798;2023-04-03T02:00:47;0.00;99.90
24384;DHT22;12504;52.870;8.798;2023-04-03T02:03:13;-0.10;99.90
24384;DHT22;12504;52.870;8.798;2023-04-03T02:05:39;-0.10;99.90
24384;DHT22;12504;52.870;8.798;2023-04-03T02:08:05;0.00;99.90
24384;DHT22;12504;52.870;8.798;2023-04-03T02:10:31;0.00;99.90
24384;DHT22;12504;52.870;8.798;2023-04-03T02:12:56;0.00;99.90
24384;DHT22;12504;52.870;8.798;2023-04-03T02:15:22;0.00;99.90
24384;DHT22;12504;52.870;8.798;2023-04-03T02:17:48;-0.10;99.90
24384;DHT22;12504;52.870;8.798;2023-04-03T02:20:13;-0.20;99.90
24384;DHT22;12504;52.870;8.798;2023-04-03T02:22:39;-0.20;99.90
24384;DHT22;12504;52.870;8.798;2023-04-03T02:25:05;-0.20;99.90
24384;DHT22;12504;52.870;8.798;2023-04-03T02:27:30;-0.30;99.90
24384;DHT22;12504;52.870;8.798;2023-04-03T02:44:36;-0.30;99.90
24384;DHT22;12504;52.870;8.798;2023-04-03T02:47:02;-0.30;99.90
24384;DHT22;12504;52.870;8.798;2023-04-03T02:49:28;-0.20;99.90
24384;DHT22;12504;52.870;8.798;2023-04-03T02:54:19;-0.40;99.90
24384;DHT22;12504;52.870;8.798;2023-04-03T02:56:50;-0.40;99.90
24384;DHT22;12504;52.870;8.798;2023-04-03T02:59:16;-0.50;99.90
24384;DHT22;12504;52.870;8.798;2023-04-03T03:01:42;-0.60;99.90
24384;DHT22;12504;52.870;8.798;2023-04-03T03:04:07;-0.50;99.90
24384;DHT22;12504;52.870;8.798;2023-04-03T03:06:33;-0.60;99.90
24384;DHT22;12504;52.870;8.798;2023-04-03T03:08:59;-0.50;99.90
24384;DHT22;12504;52.870;8.798;2023-04-03T03:11:25;-0.50;99.90
24384;DHT22;12504;52.870;8.798;2023-04-03T03:13:52;-0.50;99.90
24384;DHT22;12504;52.870;8.798;2023-04-03T03:16:17;-0.60;99.90
24384;DHT22;12504;52.870;8.798;2023-04-03T03:18:43;-0.60;99.90
24384;DHT22;12504;52.870;8.798;2023-04-03T03:21:09;-0.60;99.90
24384;DHT22;12504;52.870;8.798;2023-04-03T03:23:35;-0.70;99.90
24384;DHT22;12504;52.870;8.798;2023-04-03T03:26:01;-0.70;99.90
24384;DHT22;12504;52.870;8.798;2023-04-03T03:28:27;-0.70;99.90
24384;DHT22;12504;52.870;8.798;2023-04-03T03:30:53;-0.60;99.90
24384;DHT22;12504;52.870;8.798;2023-04-03T03:33:20;-0.70;99.90
24384;DHT22;12504;52.870;8.798;2023-04-03T03:35:45;-0.70;99.90
24384;DHT22;12504;52.870;8.798;2023-04-03T03:38:11;-0.80;99.90
24384;DHT22;12504;52.870;8.798;2023-04-03T03:40:37;-0.70;99.90
24384;DHT22;12504;52.870;8.798;2023-04-03T03:43:03;-0.70;99.90
24384;DHT22;12504;52.870;8.798;2023-04-03T03:45:29;-0.70;99.90
24384;DHT22;12504;52.870;8.798;2023-04-03T03:47:56;-0.80;99.90
24384;DHT22;12504;52.870;8.798;2023-04-03T03:50:22;-0.80;99.90
24384;DHT22;12504;52.870;8.798;2023-04-03T03:52:48;-0.80;99.90
24384;DHT22;12504;52.870;8.798;2023-04-03T03:55:14;-0.80;99.90
24384;DHT22;12504;52.870;8.798;2023-04-03T03:57:40;-0.80;99.90
24384;DHT22;12504;52.870;8.798;2023-04-03T04:00:06;-0.90;99.90
24384;DHT22;12504;52.870;8.798;2023-04-03T04:02:40;-0.90;99.90
24384;DHT22;12504;52.870;8.798;2023-04-03T04:05:07;-1.00;99.90
24384;DHT22;12504;52.870;8.798;2023-04-03T04:07:34;-1.10;99.90
24384;DHT22;12504;52.870;8.798;2023-04-03T04:10:01;-1.10;99.90
24384;DHT22;12504;52.870;8.798;2023-04-03T04:12:26;-1.10;99.90
24384;DHT22;12504;52.870;8.798;2023-04-03T05:08:45;-1.20;99.90
24384;DHT22;12504;52.870;8.798;2023-04-03T05:11:11;-1.10;99.90
24384;DHT22;12504;52.870;8.798;2023-04-03T05:13:38;-1.10;99.90
24384;DHT22;12504;52.870;8.798;2023-04-03T05:16:04;-1.20;99.90
24384;DHT22;12504;52.870;8.798;2023-04-03T05:18:29;-1.10;99.90
24384;DHT22;12504;52.870;8.798;2023-04-03T05:20:58;-1.10;99.90
24384;DHT22;12504;52.870;8.798;2023-04-03T05:23:26;-1.10;99.90
24384;DHT22;12504;52.870;8.798;2023-04-03T05:25:52;-1.00;99.90
24384;DHT22;12504;52.870;8.798;2023-04-03T05:28:19;-0.90;99.90
24384;DHT22;12504;52.870;8.798;2023-04-03T05:30:45;-0.90;99.90
24384;DHT22;12504;52.870;8.798;2023-04-03T05:33:11;-0.80;99.90
24384;DHT22;12504;52.870;8.798;2023-04-03T05:35:43;-0.80;99.90
24384;DHT22;12504;52.870;8.798;2023-04-03T05:38:14;-0.70;99.90
24384;DHT22;12504;52.870;8.798;2023-04-03T05:40:40;-0.60;99.90
24384;DHT22;12504;52.870;8.798;2023-04-03T05:43:06;-0.10;99.90
24384;DHT22;12504;52.870;8.798;2023-04-03T05:45:35;0.60;99.90
24384;DHT22;12504;52.870;8.798;2023-04-03T05:48:01;1.20;99.90
24384;DHT22;12504;52.870;8.798;2023-04-03T05:50:27;1.90;99.90
24384;DHT22;12504;52.870;8.798;2023-04-03T05:52:54;2.60;99.90
24384;DHT22;12504;52.870;8.798;2023-04-03T05:55:22;3.20;99.90
24384;DHT22;12504;52.870;8.798;2023-04-03T05:57:49;3.70;99.90
24384;DHT22;12504;52.870;8.798;2023-04-03T06:00:15;4.20;99.90
24384;DHT22;12504;52.870;8.798;2023-04-03T06:02:46;4.20;99.90
24384;DHT22;12504;52.870;8.798;2023-04-03T06:05:17;3.90;99.90
24384;DHT22;12504;52.870;8.798;2023-04-03T06:07:43;3.40;99.90
24384;DHT22;12504;52.870;8.798;2023-04-03T06:10:10;3.20;99.90
24384;DHT22;12504;52.870;8.798;2023-04-03T06:12:36;2.90;99.90
24384;DHT22;12504;52.870;8.798;2023-04-03T06:15:02;2.70;99.90
24384;DHT22;12504;52.870;8.798;2023-04-03T06:17:28;2.60;99.90
24384;DHT22;12504;52.870;8.798;2023-04-03T06:19:55;2.50;99.90
24384;DHT22;12504;52.870;8.798;2023-04-03T06:22:21;2.40;99.90
24384;DHT22;12504;52.870;8.798;2023-04-03T06:24:47;2.20;99.90
24384;DHT22;12504;52.870;8.798;2023-04-03T06:27:12;2.30;99.90
24384;DHT22;12504;52.870;8.798;2023-04-03T06:29:38;2.10;99.90
24384;DHT22;12504;52.870;8.798;2023-04-03T06:32:03;1.90;99.90
24384;DHT22;12504;52.870;8.798;2023-04-03T06:34:29;1.90;99.90
24384;DHT22;12504;52.870;8.798;2023-04-03T06:36:55;1.90;99.90
24384;DHT22;12504;52.870;8.798;2023-04-03T06:39:21;1.90;99.90
24384;DHT22;12504;52.870;8.798;2023-04-03T06:41:48;1.90;99.90
24384;DHT22;12504;52.870;8.798;2023-04-03T06:44:15;1.90;99.90
24384;DHT22;12504;52.870;8.798;2023-04-03T06:46:42;1.90;99.90
24384;DHT22;12504;52.870;8.798;2023-04-03T06:49:07;2.00;99.90
24384;DHT22;12504;52.870;8.798;2023-04-03T06:51:34;2.10;99.90
24384;DHT22;12504;52.870;8.798;2023-04-03T06:54:00;2.10;99.90
24384;DHT22;12504;52.870;8.798;2023-04-03T06:56:27;2.10;99.90
24384;DHT22;12504;52.870;8.798;2023-04-03T06:58:53;2.20;99.90
24384;DHT22;12504;52.870;8.798;2023-04-03T07:01:20;2.10;99.90
24384;DHT22;12504;52.870;8.798;2023-04-03T07:03:46;2.20;99.90
24384;DHT22;12504;52.870;8.798;2023-04-03T07:06:13;2.20;99.90
24384;DHT22;12504;52.870;8.798;2023-04-03T07:08:40;2.30;99.90
24384;DHT22;12504;52.870;8.798;2023-04-03T07:11:05;2.30;99.90
24384;DHT22;12504;52.870;8.798;2023-04-03T07:13:31;2.40;99.90
24384;DHT22;12504;52.870;8.798;2023-04-03T07:15:58;2.40;99.90
24384;DHT22;12504;52.870;8.798;2023-04-03T07:18:23;2.40;99.90
24384;DHT22;12504;52.870;8.798;2023-04-03T07:20:49;2.50;99.90
24384;DHT22;12504;52.870;8.798;2023-04-03T07:23:15;2.60;99.90
24384;DHT22;12504;52.870;8.798;2023-04-03T07:25:43;2.60;99.90
24384;DHT22;12504;52.870;8.798;2023-04-03T07:28:09;2.70;99.90
24384;DHT22;12504;52.870;8.798;2023-04-03T07:30:41;2.80;99.90
24384;DHT22;12504;52.870;8.798;2023-04-03T07:33:07;2.90;99.90
24384;DHT22;12504;52.870;8.798;2023-04-03T07:35:33;3.00;99.90
24384;DHT22;12504;52.870;8.798;2023-04-03T07:37:58;3.10;99.90
24384;DHT22;12504;52.870;8.798;2023-04-03T07:40:24;3.10;99.90
24384;DHT22;12504;52.870;8.798;2023-04-03T07:42:50;3.20;99.90
24384;DHT22;12504;52.870;8.798;2023-04-03T07:45:16;3.40;99.90
24384;DHT22;12504;52.870;8.798;2023-04-03T07:47:42;3.40;99.90
24384;DHT22;12504;52.870;8.798;2023-04-03T07:50:08;3.40;99.90
24384;DHT22;12504;52.870;8.798;2023-04-03T07:52:37;3.50;99.90
24384;DHT22;12504;52.870;8.798;2023-04-03T07:55:02;3.60;99.90
24384;DHT22;12504;52.870;8.798;2023-04-03T07:57:28;3.70;99.90
24384;DHT22;12504;52.870;8.798;2023-04-03T07:59:53;3.80;99.90
24384;DHT22;12504;52.870;8.798;2023-04-03T08:02:19;3.90;99.90
24384;DHT22;12504;52.870;8.798;2023-04-03T08:04:45;3.90;99.90
24384;DHT22;12504;52.870;8.798;2023-04-03T08:07:10;3.90;99.90
24384;DHT22;12504;52.870;8.798;2023-04-03T08:09:36;3.90;99.90
24384;DHT22;12504;52.870;8.798;2023-04-03T08:12:01;4.00;99.90
24384;DHT22;12504;52.870;8.798;2023-04-03T08:14:27;4.00;99.90
24384;DHT22;12504;52.870;8.798;2023-04-03T08:16:55;4.10;99.90
24384;DHT22;12504;52.870;8.798;2023-04-03T08:19:21;4.10;99.90
24384;DHT22;12504;52.870;8.798;2023-04-03T08:21:46;4.20;99.90
24384;DHT22;12504;52.870;8.798;2023-04-03T08:24:12;4.30;99.90
24384;DHT22;12504;52.870;8.798;2023-04-03T08:26:38;4.40;55.20
24384;DHT22;12504;52.870;8.798;2023-04-03T08:29:03;4.50;3.70
24384;DHT22;12504;52.870;8.798;2023-04-03T08:31:29;4.50;5.30
24384;DHT22;12504;52.870;8.798;2023-04-03T08:33:56;4.60;2.30
24384;DHT22;12504;52.870;8.798;2023-04-03T08:36:25;4.70;1.00
24384;DHT22;12504;52.870;8.798;2023-04-03T08:38:52;4.70;10.90
24384;DHT22;12504;52.870;8.798;2023-04-03T08:41:25;4.80;17.00
24384;DHT22;12504;52.870;8.798;2023-04-03T08:44:09;4.90;1.00
24384;DHT22;12504;52.870;8.798;2023-04-03T08:46:42;4.90;1.00
24384;DHT22;12504;52.870;8.798;2023-04-03T08:49:21;5.00;1.00
24384;DHT22;12504;52.870;8.798;2023-04-03T08:51:48;5.10;1.00
24384;DHT22;12504;52.870;8.798;2023-04-03T08:54:24;5.20;1.00
24384;DHT22;12504;52.870;8.798;2023-04-03T08:56:50;5.30;1.00
24384;DHT22;12504;52.870;8.798;2023-04-03T08:59:17;5.40;1.00
24384;DHT22;12504;52.870;8.798;2023-04-03T09:01:45;5.40;1.00
24384;DHT22;12504;52.870;8.798;2023-04-03T09:04:14;5.40;1.00
24384;DHT22;12504;52.870;8.798;2023-04-03T09:06:42;5.40;1.00
24384;DHT22;12504;52.870;8.798;2023-04-03T09:16:49;5.40;1.00
24384;DHT22;12504;52.870;8.798;2023-04-03T09:21:44;5.60;1.00
24384;DHT22;12504;52.870;8.798;2023-04-03T09:24:10;5.60;1.00
24384;DHT22;12504;52.870;8.798;2023-04-03T09:26:44;5.70;1.00
24384;DHT22;12504;52.870;8.798;2023-04-03T09:29:17;5.70;1.00
24384;DHT22;12504;52.870;8.798;2023-04-03T09:31:44;5.70;1.00
24384;DHT22;12504;52.870;8.798;2023-04-03T09:36:47;5.80;1.00
24384;DHT22;12504;52.870;8.798;2023-04-03T09:39:14;5.90;1.00
24384;DHT22;12504;52.870;8.798;2023-04-03T09:41:41;6.00;1.00
24384;DHT22;12504;52.870;8.798;2023-04-03T09:44:26;6.10;1.00
24384;DHT22;12504;52.870;8.798;2023-04-03T09:46:52;6.20;1.00
24384;DHT22;12504;52.870;8.798;2023-04-03T09:49:18;6.30;1.00
24384;DHT22;12504;52.870;8.798;2023-04-03T09:51:44;6.40;1.00
24384;DHT22;12504;52.870;8.798;2023-04-03T09:56:51;6.40;1.00
24384;DHT22;12504;52.870;8.798;2023-04-03T09:59:18;6.50;1.00
24384;DHT22;12504;52.870;8.798;2023-04-03T10:01:56;6.50;1.00
24384;DHT22;12504;52.870;8.798;2023-04-03T10:04:22;6.40;1.00
24384;DHT22;12504;52.870;8.798;2023-04-03T10:06:50;6.50;1.00
24384;DHT22;12504;52.870;8.798;2023-04-03T10:09:31;6.60;1.00
24384;DHT22;12504;52.870;8.798;2023-04-03T10:12:02;6.70;1.00
24384;DHT22;12504;52.870;8.798;2023-04-03T10:14:31;6.80;1.00
24384;DHT22;12504;52.870;8.798;2023-04-03T10:17:02;6.90;1.00
24384;DHT22;12504;52.870;8.798;2023-04-03T10:19:32;7.00;1.00
24384;DHT22;12504;52.870;8.798;2023-04-03T10:21:59;6.90;1.00
24384;DHT22;12504;52.870;8.798;2023-04-03T10:27:00;6.90;1.00
24384;DHT22;12504;52.870;8.798;2023-04-03T10:29:37;6.80;1.00
24384;DHT22;12504;52.870;8.798;2023-04-03T10:34:33;6.90;1.00
24384;DHT22;12504;52.870;8.798;2023-04-03T10:37:21;7.00;1.00
24384;DHT22;12504;52.870;8.798;2023-04-03T10:39:57;7.00;1.00
24384;DHT22;12504;52.870;8.798;2023-04-03T10:42:44;7.10;1.00
24384;DHT22;12504;52.870;8.798;2023-04-03T10:45:20;7.30;1.00
24384;DHT22;12504;52.870;8.798;2023-04-03T10:53:14;7.40;1.00
24384;DHT22;12504;52.870;8.798;2023-04-03T10:58:17;7.40;1.00
24384;DHT22;12504;52.870;8.798;2023-04-03T11:00:44;7.30;1.00
24384;DHT22;12504;52.870;8.798;2023-04-03T11:06:02;7.50;1.00
24384;DHT22;12504;52.870;8.798;2023-04-03T11:08:32;7.30;1.00
24384;DHT22;12504;52.870;8.798;2023-04-03T11:11:00;7.50;1.00
24384;DHT22;12504;52.870;8.798;2023-04-03T11:13:33;7.50;1.00
24384;DHT22;12504;52.870;8.798;2023-04-03T11:15:59;7.50;1.00
24384;DHT22;12504;52.870;8.798;2023-04-03T11:18:26;7.60;1.00
24384;DHT22;12504;52.870;8.798;2023-04-03T11:21:00;7.80;1.00
24384;DHT22;12504;52.870;8.798;2023-04-03T11:23:31;8.00;1.00
24384;DHT22;12504;52.870;8.798;2023-04-03T11:26:01;8.40;1.00
24384;DHT22;12504;52.870;8.798;2023-04-03T11:28:32;8.70;1.00
24384;DHT22;12504;52.870;8.798;2023-04-03T11:31:13;8.70;1.00
24384;DHT22;12504;52.870;8.798;2023-04-03T11:36:11;8.60;1.00
24384;DHT22;12504;52.870;8.798;2023-04-03T11:38:43;8.40;1.00
24384;DHT22;12504;52.870;8.798;2023-04-03T11:41:10;7.90;1.00
24384;DHT22;12504;52.870;8.798;2023-04-03T11:43:41;7.50;1.00
24384;DHT22;12504;52.870;8.798;2023-04-03T11:46:07;7.20;1.00
24384;DHT22;12504;52.870;8.798;2023-04-03T11:51:02;8.80;1.00
24384;DHT22;12504;52.870;8.798;2023-04-03T11:53:46;10.50;1.00
24384;DHT22;12504;52.870;8.798;2023-04-03T11:59:14;13.80;1.00
24384;DHT22;12504;52.870;8.798;2023-04-03T12:04:08;15.10;1.00
24384;DHT22;12504;52.870;8.798;2023-04-03T12:09:01;14.90;1.00
24384;DHT22;12504;52.870;8.798;2023-04-03T12:16:22;11.90;1.00
24384;DHT22;12504;52.870;8.798;2023-04-03T12:21:14;10.90;1.00
24384;DHT22;12504;52.870;8.798;2023-04-03T12:26:33;9.70;1.00
24384;DHT22;12504;52.870;8.798;2023-04-03T12:29:19;9.10;1.00
24384;DHT22;12504;52.870;8.798;2023-04-03T12:31:49;8.80;1.00
24384;DHT22;12504;52.870;8.798;2023-04-03T12:41:50;10.10;1.00
24384;DHT22;12504;52.870;8.798;2023-04-03T12:46:58;10.30;1.00
24384;DHT22;12504;52.870;8.798;2023-04-03T12:49:33;11.10;1.00
24384;DHT22;12504;52.870;8.798;2023-04-03T12:51:59;11.50;1.00
24384;DHT22;12504;52.870;8.798;2023-04-03T12:54:32;11.70;1.00
24384;DHT22;12504;52.870;8.798;2023-04-03T12:59:43;11.90;1.00
24384;DHT22;12504;52.870;8.798;2023-04-03T13:02:24;12.30;1.00
24384;DHT22;12504;52.870;8.798;2023-04-03T13:04:51;12.40;1.00
24384;DHT22;12504;52.870;8.798;2023-04-03T13:07:21;13.40;1.00
24384;DHT22;12504;52.870;8.798;2023-04-03T13:09:54;13.20;1.00
24384;DHT22;12504;52.870;8.798;2023-04-03T13:12:20;11.50;1.00
24384;DHT22;12504;52.870;8.798;2023-04-03T13:14:54;10.80;1.00
24384;DHT22;12504;52.870;8.798;2023-04-03T13:17:21;10.10;1.00
24384;DHT22;12504;52.870;8.798;2023-04-03T13:19:47;9.80;1.00
24384;DHT22;12504;52.870;8.798;2023-04-03T13:24:57;10.40;1.00
24384;DHT22;12504;52.870;8.798;2023-04-03T13:27:25;11.00;1.00
24384;DHT22;12504;52.870;8.798;2023-04-03T13:29:52;11.40;1.00
24384;DHT22;12504;52.870;8.798;2023-04-03T13:32:19;11.20;1.00
24384;DHT22;12504;52.870;8.798;2023-04-03T13:34:45;10.90;1.00
24384;DHT22;12504;52.870;8.798;2023-04-03T13:37:21;11.00;1.00
24384;DHT22;12504;52.870;8.798;2023-04-03T13:39:56;10.60;1.00
24384;DHT22;12504;52.870;8.798;2023-04-03T13:42:26;10.70;1.00
24384;DHT22;12504;52.870;8.798;2023-04-03T13:45:16;10.80;1.00
24384;DHT22;12504;52.870;8.798;2023-04-03T13:47:43;11.30;1.00
24384;DHT22;12504;52.870;8.798;2023-04-03T13:52:42;11.50;1.00
24384;DHT22;12504;52.870;8.798;2023-04-03T13:55:16;11.60;1.00
24384;DHT22;12504;52.870;8.798;2023-04-03T13:57:53;12.00;1.00
24384;DHT22;12504;52.870;8.798;2023-04-03T14:00:20;11.90;1.00
24384;DHT22;12504;52.870;8.798;2023-04-03T14:02:47;11.80;1.00
24384;DHT22;12504;52.870;8.798;2023-04-03T14:05:12;11.10;1.00
24384;DHT22;12504;52.870;8.798;2023-04-03T14:07:38;10.60;1.00
24384;DHT22;12504;52.870;8.798;2023-04-03T14:10:04;10.10;1.00
24384;DHT22;12504;52.870;8.798;2023-04-03T14:12:31;9.90;1.00
24384;DHT22;12504;52.870;8.798;2023-04-03T14:14:59;9.60;1.00
24384;DHT22;12504;52.870;8.798;2023-04-03T14:17:26;9.90;1.00
24384;DHT22;12504;52.870;8.798;2023-04-03T14:19:52;9.70;1.00
24384;DHT22;12504;52.870;8.798;2023-04-03T14:22:20;9.40;1.00
24384;DHT22;12504;52.870;8.798;2023-04-03T14:24:47;9.00;1.00
24384;DHT22;12504;52.870;8.798;2023-04-03T14:27:19;8.90;1.00
24384;DHT22;12504;52.870;8.798;2023-04-03T14:29:45;9.00;1.00
24384;DHT22;12504;52.870;8.798;2023-04-03T14:32:12;9.60;99.90
24384;DHT22;12504;52.870;8.798;2023-04-03T14:34:38;9.90;99.90
24384;DHT22;12504;52.870;8.798;2023-04-03T14:37:04;10.50;99.90
24384;DHT22;12504;52.870;8.798;2023-04-03T14:39:30;10.40;99.90
24384;DHT22;12504;52.870;8.798;2023-04-03T14:41:56;10.10;99.90
24384;DHT22;12504;52.870;8.798;2023-04-03T14:44:21;9.80;99.90
24384;DHT22;12504;52.870;8.798;2023-04-03T14:46:48;9.40;99.90
24384;DHT22;12504;52.870;8.798;2023-04-03T14:49:15;8.90;99.90
24384;DHT22;12504;52.870;8.798;2023-04-03T14:51:42;8.70;99.90
24384;DHT22;12504;52.870;8.798;2023-04-03T14:54:15;8.80;99.90
24384;DHT22;12504;52.870;8.798;2023-04-03T14:56:41;9.10;99.90
24384;DHT22;12504;52.870;8.798;2023-04-03T14:59:11;9.60;99.90
24384;DHT22;12504;52.870;8.798;2023-04-03T15:01:36;10.30;99.90
24384;DHT22;12504;52.870;8.798;2023-04-03T15:04:05;10.70;99.90
24384;DHT22;12504;52.870;8.798;2023-04-03T15:06:35;10.90;99.90
24384;DHT22;12504;52.870;8.798;2023-04-03T15:09:00;10.70;99.90
24384;DHT22;12504;52.870;8.798;2023-04-03T15:11:26;10.10;99.90
24384;DHT22;12504;52.870;8.798;2023-04-03T15:13:52;9.50;99.90
24384;DHT22;12504;52.870;8.798;2023-04-03T15:16:18;9.00;99.90
24384;DHT22;12504;52.870;8.798;2023-04-03T15:18:44;8.80;99.90
24384;DHT22;12504;52.870;8.798;2023-04-03T15:21:10;8.50;99.90
24384;DHT22;12504;52.870;8.798;2023-04-03T15:23:36;8.40;99.90
24384;DHT22;12504;52.870;8.798;2023-04-03T15:26:02;8.70;99.90
24384;DHT22;12504;52.870;8.798;2023-04-03T15:28:28;9.30;99.90
24384;DHT22;12504;52.870;8.798;2023-04-03T15:30:55;9.90;99.90
24384;DHT22;12504;52.870;8.798;2023-04-03T15:33:21;10.40;99.90
24384;DHT22;12504;52.870;8.798;2023-04-03T15:35:46;10.40;1.00
24384;DHT22;12504;52.870;8.798;2023-04-03T15:38:12;10.20;1.00
24384;DHT22;12504;52.870;8.798;2023-04-03T15:40:38;10.20;1.00
24384;DHT22;12504;52.870;8.798;2023-04-03T15:43:04;9.90;1.00
24384;DHT22;12504;52.870;8.798;2023-04-03T15:45:30;9.30;1.00
24384;DHT22;12504;52.870;8.798;2023-04-03T15:47:57;8.90;1.00
24384;DHT22;12504;52.870;8.798;2023-04-03T15:50:22;8.70;1.00
24384;DHT22;12504;52.870;8.798;2023-04-03T15:52:52;8.90;1.00
24384;DHT22;12504;52.870;8.798;2023-04-03T15:55:23;9.20;99.90
24384;DHT22;12504;52.870;8.798;2023-04-03T15:57:49;9.20;1.00
24384;DHT22;12504;52.870;8.798;2023-04-03T16:00:15;9.00;1.00
24384;DHT22;12504;52.870;8.798;2023-04-03T16:02:41;8.60;99.90
24384;DHT22;12504;52.870;8.798;2023-04-03T16:05:07;8.50;99.90
24384;DHT22;12504;52.870;8.798;2023-04-03T16:07:34;8.30;99.90
24384;DHT22;12504;52.870;8.798;2023-04-03T16:10:00;8.50;99.90
24384;DHT22;12504;52.870;8.798;2023-04-03T16:12:25;8.90;99.90
24384;DHT22;12504;52.870;8.798;2023-04-03T16:14:51;9.30;99.90
24384;DHT22;12504;52.870;8.798;2023-04-03T16:17:17;9.60;99.90
24384;DHT22;12504;52.870;8.798;2023-04-03T16:19:42;9.70;99.90
24384;DHT22;12504;52.870;8.798;2023-04-03T16:22:08;9.80;99.90
24384;DHT22;12504;52.870;8.798;2023-04-03T16:24:34;9.90;99.90
24384;DHT22;12504;52.870;8.798;2023-04-03T16:27:00;10.20;99.90
24384;DHT22;12504;52.870;8.798;2023-04-03T16:29:26;10.20;99.90
24384;DHT22;12504;52.870;8.798;2023-04-03T16:31:52;10.40;99.90
24384;DHT22;12504;52.870;8.798;2023-04-03T16:34:17;10.20;99.90
24384;DHT22;12504;52.870;8.798;2023-04-03T16:36:43;10.20;99.90
24384;DHT22;12504;52.870;8.798;2023-04-03T16:39:09;9.90;99.90
24384;DHT22;12504;52.870;8.798;2023-04-03T16:41:37;9.60;99.90
24384;DHT22;12504;52.870;8.798;2023-04-03T16:44:03;9.40;99.90
24384;DHT22;12504;52.870;8.798;2023-04-03T16:46:29;9.30;99.90
24384;DHT22;12504;52.870;8.798;2023-04-03T16:48:54;9.10;99.90
24384;DHT22;12504;52.870;8.798;2023-04-03T16:51:20;9.00;99.90
24384;DHT22;12504;52.870;8.798;2023-04-03T16:53:45;8.90;99.90
24384;DHT22;12504;52.870;8.798;2023-04-03T16:56:11;8.90;99.90
24384;DHT22;12504;52.870;8.798;2023-04-03T16:58:36;8.90;99.90
24384;DHT22;12504;52.870;8.798;2023-04-03T17:01:09;9.00;99.90
24384;DHT22;12504;52.870;8.798;2023-04-03T17:03:35;9.40;99.90
24384;DHT22;12504;52.870;8.798;2023-04-03T17:06:00;9.40;99.90
24384;DHT22;12504;52.870;8.798;2023-04-03T17:08:26;9.20;99.90
24384;DHT22;12504;52.870;8.798;2023-04-03T17:10:52;9.10;99.90
24384;DHT22;12504;52.870;8.798;2023-04-03T17:13:19;8.90;99.90
24384;DHT22;12504;52.870;8.798;2023-04-03T17:15:44;8.70;99.90
24384;DHT22;12504;52.870;8.798;2023-04-03T17:18:10;8.40;99.90
24384;DHT22;12504;52.870;8.798;2023-04-03T17:20:36;8.20;99.90
24384;DHT22;12504;52.870;8.798;2023-04-03T17:23:03;8.10;99.90
24384;DHT22;12504;52.870;8.798;2023-04-03T17:25:29;8.00;99.90
24384;DHT22;12504;52.870;8.798;2023-04-03T17:27:54;7.90;99.90
24384;DHT22;12504;52.870;8.798;2023-04-03T17:30:21;7.90;99.90
24384;DHT22;12504;52.870;8.798;2023-04-03T17:32:47;7.80;99.90
24384;DHT22;12504;52.870;8.798;2023-04-03T17:35:12;7.70;99.90
24384;DHT22;12504;52.870;8.798;2023-04-03T17:37:41;7.60;99.90
24384;DHT22;12504;52.870;8.798;2023-04-03T17:40:06;7.50;99.90
24384;DHT22;12504;52.870;8.798;2023-04-03T17:42:32;7.40;99.90
24384;DHT22;12504;52.870;8.798;2023-04-03T17:44:58;7.30;99.90
24384;DHT22;12504;52.870;8.798;2023-04-03T17:47:25;7.20;99.90
24384;DHT22;12504;52.870;8.798;2023-04-03T17:49:51;7.00;99.90
24384;DHT22;12504;52.870;8.798;2023-04-03T17:52:16;6.80;99.90
24384;DHT22;12504;52.870;8.798;2023-04-03T17:54:41;6.60;99.90
24384;DHT22;12504;52.870;8.798;2023-04-03T17:57:07;6.40;99.90
24384;DHT22;12504;52.870;8.798;2023-04-03T17:59:33;6.30;99.90
24384;DHT22;12504;52.870;8.798;2023-04-03T18:01:59;6.10;99.90
24384;DHT22;12504;52.870;8.798;2023-04-03T18:04:24;6.00;99.90
24384;DHT22;12504;52.870;8.798;2023-04-03T18:06:50;5.90;99.90
24384;DHT22;12504;52.870;8.798;2023-04-03T18:09:17;5.80;99.90
24384;DHT22;12504;52.870;8.798;2023-04-03T18:11:44;5.70;99.90
24384;DHT22;12504;52.870;8.798;2023-04-03T18:14:10;5.60;99.90
24384;DHT22;12504;52.870;8.798;2023-04-03T18:16:37;5.50;99.90